createdAt,value
2017-08-02T00:02:14.737Z,"    0"
2017-08-02T00:07:10.609Z,"    0"
2017-08-02T00:12:06.905Z,"    0"
2017-08-02T00:17:02.801Z,"    0"
2017-08-02T00:21:59.140Z,"    0"
2017-08-02T00:26:54.603Z,"    0"
2017-08-02T00:31:50.669Z,"    0"
2017-08-02T00:36:46.404Z,"    0"
2017-08-02T00:41:42.979Z,"    0"
2017-08-02T00:46:38.617Z,"    0"
2017-08-02T00:51:34.721Z,"    0"
2017-08-02T00:56:30.998Z,"    0"
2017-08-02T01:01:27.939Z,"    0"
2017-08-02T01:06:23.807Z,"    0"
2017-08-02T01:11:21.626Z,"    0"
2017-08-02T01:16:17.109Z,"    0"
2017-08-02T01:21:14.487Z,"    0"
2017-08-02T01:26:11.641Z,"    0"
2017-08-02T01:31:07.193Z,"    0"
2017-08-02T01:36:03.115Z,"    0"
2017-08-02T01:40:58.950Z,"    0"
2017-08-02T01:45:54.912Z,"    0"
2017-08-02T01:50:52.620Z,"    0"
2017-08-02T01:55:47.996Z,"    0"
2017-08-02T02:00:45.302Z,"    0"
2017-08-02T02:05:40.827Z,"    0"
2017-08-02T02:10:36.565Z,"    0"
2017-08-02T02:15:34.902Z,"    0"
2017-08-02T02:20:30.274Z,"    0"
2017-08-02T02:25:27.217Z,"    0"
2017-08-02T02:30:23.866Z,"    0"
2017-08-02T02:35:19.684Z,"    0"
2017-08-02T02:40:17.753Z,"    0"
2017-08-02T02:45:14.384Z,"    0"
2017-08-02T02:50:11.097Z,"    0"
2017-08-02T02:55:08.276Z,"    0"
2017-08-02T03:00:06.054Z,"    0"
2017-08-02T03:05:02.758Z,"    0"
2017-08-02T03:09:58.200Z,"    0"
2017-08-02T03:14:54.665Z,"    0"
2017-08-02T03:19:51.780Z,"    0"
2017-08-02T03:24:48.599Z,"    0"
2017-08-02T03:29:45.438Z,"    4"
2017-08-02T03:34:42.060Z,"   12"
2017-08-02T03:39:39.709Z,"   28"
2017-08-02T03:44:35.694Z,"   48"
2017-08-02T03:49:31.698Z,"   68"
2017-08-02T03:54:27.598Z,"  104"
2017-08-02T03:59:23.312Z,"  152"
2017-08-02T04:04:18.994Z,"  212"
2017-08-02T04:09:15.986Z,"  312"
2017-08-02T04:14:11.608Z,"  444"
2017-08-02T04:19:07.477Z,"  656"
2017-08-02T04:24:04.454Z,"  852"
2017-08-02T04:29:00.148Z," 1084"
2017-08-02T04:33:57.375Z," 1396"
2017-08-02T04:38:53.248Z," 1376"
2017-08-02T04:43:50.339Z," 1696"
2017-08-02T04:48:45.917Z," 1932"
2017-08-02T04:53:42.084Z," 2248"
2017-08-02T04:58:38.021Z," 1856"
2017-08-02T05:03:33.718Z," 1648"
2017-08-02T05:08:29.595Z," 1428"
2017-08-02T05:13:26.483Z," 1980"
2017-08-02T05:18:22.573Z," 2568"
2017-08-02T05:23:18.832Z," 2596"
2017-08-02T05:28:15.781Z," 2672"
2017-08-02T05:33:11.325Z," 3316"
2017-08-02T05:38:07.445Z," 4292"
2017-08-02T05:43:04.505Z," 3440"
2017-08-02T05:47:59.968Z," 4824"
2017-08-02T05:52:56.267Z," 5244"
2017-08-02T05:57:53.166Z," 4460"
2017-08-02T06:02:49.171Z," 3540"
2017-08-02T06:07:45.314Z," 5136"
2017-08-02T06:12:41.840Z," 4932"
2017-08-02T06:17:38.853Z," 4972"
2017-08-02T06:22:35.660Z," 2648"
2017-08-02T06:27:31.704Z," 4328"
2017-08-02T06:32:28.646Z," 4444"
2017-08-02T06:37:25.660Z," 5236"
2017-08-02T06:42:21.714Z," 8372"
2017-08-02T06:47:19.057Z," 6752"
2017-08-02T06:52:15.675Z," 5104"
2017-08-02T06:57:11.566Z," 5276"
2017-08-02T07:02:07.886Z," 7604"
2017-08-02T07:07:03.949Z," 8264"
2017-08-02T07:12:01.250Z," 6108"
2017-08-02T07:16:57.736Z," 7544"
2017-08-02T07:21:54.684Z," 8828"
2017-08-02T07:26:51.688Z," 7760"
2017-08-02T07:31:47.589Z,11532
2017-08-02T07:36:48.432Z,12936
2017-08-02T07:41:44.803Z,11908
2017-08-02T07:46:40.609Z,14180
2017-08-02T07:51:38.353Z,12488
2017-08-02T07:56:34.584Z,17056
2017-08-02T08:01:31.366Z,11568
2017-08-02T08:06:27.802Z,11384
2017-08-02T08:11:23.382Z,12608
2017-08-02T08:16:21.626Z," 8132"
2017-08-02T08:21:17.015Z,14736
2017-08-02T08:26:14.403Z,13636
2017-08-02T08:31:11.741Z,14340
2017-08-02T08:36:08.849Z,24608
2017-08-02T08:41:05.501Z,28032
2017-08-02T08:46:02.323Z,17760
2017-08-02T08:50:58.981Z,25408
2017-08-02T08:55:57.118Z," 9480"
2017-08-02T09:00:52.250Z,14816
2017-08-02T09:05:47.665Z," 9400"
2017-08-02T09:10:43.335Z," 8304"
2017-08-02T09:15:40.192Z,15636
2017-08-02T09:20:37.894Z,10400
2017-08-02T09:25:34.269Z," 4928"
2017-08-02T09:30:30.606Z," 5812"
2017-08-02T09:35:26.249Z,21184
2017-08-02T09:40:23.194Z,20352
2017-08-02T09:45:21.443Z,12956
2017-08-02T09:50:16.842Z,24864
2017-08-02T09:55:13.814Z,19616
2017-08-02T10:00:11.332Z,21856
2017-08-02T10:05:08.162Z,23616
2017-08-02T10:10:04.607Z,21728
2017-08-02T10:15:01.240Z,69312
2017-08-02T10:19:59.709Z,37024
2017-08-02T10:24:54.868Z,58880
2017-08-02T10:29:50.830Z,96448
2017-08-02T10:34:47.575Z,48128
2017-08-02T10:39:44.667Z,15884
2017-08-02T10:44:38.956Z,17088
2017-08-02T10:49:34.129Z,13316
2017-08-02T10:54:30.062Z,15240
2017-08-02T10:59:26.029Z,13252
2017-08-02T11:04:23.000Z,29440
2017-08-02T11:09:20.132Z,27648
2017-08-02T11:14:17.587Z,61664
2017-08-02T11:19:14.581Z,25984
2017-08-02T11:24:11.596Z,29728
2017-08-02T11:29:08.764Z,17600
2017-08-02T11:34:03.422Z,18144
2017-08-02T11:38:59.192Z,18720
2017-08-02T11:43:57.843Z,107648
2017-08-02T11:48:55.640Z,11192
2017-08-02T11:53:51.729Z,25504
2017-08-02T11:58:47.992Z,68256
2017-08-02T12:03:42.488Z,99424
2017-08-02T12:08:40.074Z,43872
2017-08-02T12:13:35.996Z,31104
2017-08-02T12:18:36.100Z,53120
2017-08-02T12:23:30.241Z,32256
2017-08-02T12:28:28.723Z,45216
2017-08-02T12:33:24.746Z,43712
2017-08-02T12:38:22.682Z,31648
2017-08-02T12:43:19.453Z,62624
2017-08-02T12:48:15.448Z,39104
2017-08-02T12:53:09.197Z,18688
2017-08-02T12:58:05.051Z,87520
2017-08-02T13:03:02.988Z,43008
2017-08-02T13:07:58.412Z,27232
2017-08-02T13:12:55.585Z,34400
2017-08-02T13:17:51.288Z,14436
2017-08-02T13:22:46.197Z,20224
2017-08-02T13:27:41.541Z,13592
2017-08-02T13:32:37.377Z,15716
2017-08-02T13:37:34.400Z,16768
2017-08-02T13:42:31.090Z,15152
2017-08-02T13:47:26.778Z,22144
2017-08-02T13:52:23.174Z,24384
2017-08-02T13:57:19.404Z,13956
2017-08-02T14:02:16.026Z,17152
2017-08-02T14:07:11.753Z,15100
2017-08-02T14:12:07.624Z,11952
2017-08-02T14:17:03.467Z," 8084"
2017-08-02T14:21:59.139Z," 9092"
2017-08-02T14:26:56.036Z," 8200"
2017-08-02T14:31:53.498Z,10032
2017-08-02T14:36:49.309Z,11700
2017-08-02T14:41:45.524Z," 7544"
2017-08-02T14:46:41.427Z," 7736"
2017-08-02T14:51:38.686Z," 5608"
2017-08-02T14:56:34.186Z," 6188"
2017-08-02T15:01:29.931Z," 5880"
2017-08-02T15:06:25.850Z," 4904"
2017-08-02T15:11:23.077Z," 4380"
2017-08-02T15:16:18.645Z," 6388"
2017-08-02T15:21:17.269Z," 7036"
2017-08-02T15:26:12.752Z," 5048"
2017-08-02T15:31:08.664Z," 4240"
2017-08-02T15:36:04.658Z," 3312"
2017-08-02T15:41:00.413Z," 2856"
2017-08-02T15:45:56.225Z," 2400"
2017-08-02T15:50:51.915Z," 2216"
2017-08-02T15:55:47.882Z," 1656"
2017-08-02T16:00:43.981Z," 2136"
2017-08-02T16:05:39.938Z," 2272"
2017-08-02T16:10:36.000Z," 3704"
2017-08-02T16:15:33.108Z," 4472"
2017-08-02T16:20:28.874Z," 3316"
2017-08-02T16:25:26.156Z," 3160"
2017-08-02T16:30:22.818Z," 1480"
2017-08-02T16:35:20.278Z," 1216"
2017-08-02T16:40:16.416Z," 2220"
2017-08-02T16:45:11.918Z," 3116"
2017-08-02T16:50:07.744Z," 2880"
2017-08-02T16:55:03.739Z," 2396"
2017-08-02T16:59:59.836Z," 1816"
2017-08-02T17:04:56.764Z," 1504"
2017-08-02T17:09:53.425Z," 2260"
2017-08-02T17:14:49.027Z," 2144"
2017-08-02T17:19:46.080Z," 1492"
2017-08-02T17:24:42.620Z," 1548"
2017-08-02T17:29:39.078Z," 2068"
2017-08-02T17:34:34.627Z," 1544"
2017-08-02T17:39:31.069Z," 1244"
2017-08-02T17:44:29.031Z," 1248"
2017-08-02T17:49:24.456Z," 1680"
2017-08-02T17:54:21.300Z," 1224"
2017-08-02T17:59:17.891Z,"  956"
2017-08-02T18:04:13.377Z,"  872"
2017-08-02T18:09:11.092Z,"  700"
2017-08-02T18:14:07.549Z,"  748"
2017-08-02T18:19:03.721Z,"  704"
2017-08-02T18:24:00.848Z,"  580"
2017-08-02T18:28:57.697Z,"  584"
2017-08-02T18:33:53.227Z,"  212"
2017-08-02T18:38:50.108Z,"  112"
2017-08-02T18:43:46.715Z,"  152"
2017-08-02T18:48:42.184Z,"  104"
2017-08-02T18:53:38.911Z,"   72"
2017-08-02T18:58:34.605Z,"   76"
2017-08-02T19:03:31.523Z,"   84"
2017-08-02T19:08:28.119Z,"   48"
2017-08-02T19:13:24.912Z,"   36"
2017-08-02T19:18:23.859Z,"   24"
2017-08-02T19:23:22.861Z,"   20"
2017-08-02T19:28:22.094Z,"   12"
2017-08-02T19:33:19.178Z,"    8"
2017-08-02T19:38:16.032Z,"    4"
2017-08-02T19:43:13.891Z,"    4"
2017-08-02T19:48:10.196Z,"    0"
2017-08-02T19:53:05.903Z,"    0"
2017-08-02T19:58:01.858Z,"    0"
2017-08-02T20:08:03.073Z,"    0"
2017-08-02T20:12:58.548Z,"    0"
2017-08-02T20:17:55.027Z,"    0"
2017-08-02T20:22:52.027Z,"    0"
2017-08-02T20:27:48.654Z,"    0"
2017-08-02T20:32:46.249Z,"    0"
2017-08-02T20:37:42.442Z,"    0"
2017-08-02T20:42:39.164Z,"    0"
2017-08-02T20:47:34.919Z,"    0"
2017-08-02T20:52:31.049Z,"    0"
2017-08-02T20:57:28.612Z,"    0"
2017-08-02T21:02:24.239Z,"    0"
2017-08-02T21:07:20.531Z,"    0"
2017-08-02T21:12:16.494Z,"    0"
2017-08-02T21:17:14.156Z,"    0"
2017-08-02T21:22:10.682Z,"    0"
2017-08-02T21:27:06.963Z,"    0"
2017-08-02T21:32:03.616Z,"    0"
2017-08-02T21:37:00.082Z,"    0"
2017-08-02T21:41:56.223Z,"    0"
2017-08-02T21:46:53.020Z,"    0"
2017-08-02T21:51:51.137Z,"    0"
2017-08-02T21:56:46.617Z,"    0"
2017-08-02T22:01:44.182Z,"    0"
2017-08-02T22:06:43.165Z,"    0"
2017-08-02T22:11:39.450Z,"    0"
2017-08-02T22:16:36.448Z,"    0"
2017-08-02T22:21:33.334Z,"    0"
2017-08-02T22:26:29.955Z,"    0"
2017-08-02T22:31:25.866Z,"    0"
2017-08-02T22:36:24.173Z,"    0"
2017-08-02T22:41:20.728Z,"    0"
2017-08-02T22:46:17.676Z,"    0"
2017-08-02T22:51:14.322Z,"    0"
2017-08-02T22:56:09.763Z,"    0"
2017-08-02T23:01:06.198Z,"    0"
2017-08-02T23:06:03.472Z,"    0"
2017-08-02T23:10:59.359Z,"    0"
2017-08-02T23:15:57.265Z,"    0"
2017-08-02T23:20:54.081Z,"    0"
2017-08-02T23:25:50.813Z,"    0"
2017-08-02T23:30:48.008Z,"    0"
2017-08-02T23:35:47.487Z,"    0"
2017-08-02T23:40:44.607Z,"    0"
2017-08-02T23:45:40.578Z,"    0"
2017-08-02T23:50:37.997Z,"    0"
2017-08-02T23:55:33.583Z,"    0"
